Archiv-/Tagesdaten

--Timestamp---	Temp	Chill	HIndex	Humid	Dewpt	 Wind 	HiWind	WindDir	Rain 	Barom	Solar	 ET  	 UV 
--------------	----	-----	------	-----	-----	------	------	-------	-----	-----	-----	-----	----
20110728 00:00	16.4	16.4	16.4	75	11.9	0	2	112	0.0	1014.5	0	0.025	0.0
20110728 00:05	16.4	16.4	16.4	75	12.0	0	0	-100000	0.0	1014.5	0	0.000	0.0
20110728 00:10	16.4	16.4	16.4	75	11.9	0	0	-100000	0.0	1014.6	0	0.000	0.0
20110728 00:15	16.4	16.4	16.4	76	12.1	0	0	-100000	0.0	1014.6	0	0.000	0.0
20110728 00:20	16.3	16.3	16.3	78	12.5	0	0	-100000	0.0	1014.6	0	0.000	0.0
20110728 00:25	16.3	16.3	16.3	78	12.4	0	0	-100000	0.0	1014.6	0	0.000	0.0
20110728 00:30	16.2	16.2	16.2	77	12.1	2	6	112	0.0	1014.7	0	0.000	0.0
20110728 00:35	16.1	16.1	16.1	78	12.2	2	5	158	0.0	1014.7	0	0.000	0.0
20110728 00:40	16.1	16.1	16.1	79	12.4	0	0	-100000	0.0	1014.7	0	0.000	0.0
20110728 00:45	16.0	16.0	16.0	79	12.4	0	0	-100000	0.0	1014.8	0	0.000	0.0
20110728 00:50	15.9	15.9	15.9	79	12.3	0	0	-100000	0.0	1014.7	0	0.000	0.0
20110728 00:55	15.9	15.9	15.9	80	12.4	0	0	-100000	0.0	1014.7	0	0.000	0.0
20110728 01:00	15.8	15.8	15.8	80	12.4	0	0	-100000	0.0	1014.8	0	0.025	0.0
20110728 01:05	15.7	15.7	15.7	80	12.3	0	0	-100000	0.0	1014.8	0	0.000	0.0
20110728 01:10	15.7	15.7	15.7	80	12.2	0	0	-100000	0.0	1014.7	0	0.000	0.0
20110728 01:15	15.6	15.6	15.6	81	12.3	0	0	-100000	0.0	1014.7	0	0.000	0.0
20110728 01:20	15.5	15.5	15.5	81	12.3	0	0	-100000	0.0	1014.8	0	0.000	0.0
20110728 01:25	15.4	15.4	15.4	81	12.1	0	0	-100000	0.0	1014.8	0	0.000	0.0
20110728 01:30	15.3	15.3	15.3	81	12.0	0	2	158	0.0	1014.8	0	0.000	0.0
20110728 01:35	15.3	15.3	15.3	82	12.2	0	5	158	0.0	1014.9	0	0.000	0.0
20110728 01:40	15.2	15.2	15.2	81	12.0	3	6	202	0.0	1014.9	0	0.000	0.0
20110728 01:45	15.2	15.2	15.2	81	12.0	2	6	202	0.0	1014.9	0	0.000	0.0
20110728 01:50	15.2	15.2	15.2	81	11.9	0	2	202	0.0	1014.9	0	0.000	0.0
20110728 01:55	15.1	15.1	15.1	81	11.9	0	2	202	0.0	1015.0	0	0.000	0.0
20110728 02:00	15.0	15.0	15.0	81	11.8	0	0	-100000	0.0	1015.0	0	0.025	0.0
20110728 02:05	15.0	15.0	15.0	80	11.6	0	3	202	0.0	1015.0	0	0.000	0.0
20110728 02:10	15.0	15.0	15.0	80	11.6	0	3	202	0.0	1015.0	0	0.000	0.0
20110728 02:15	15.0	15.0	15.0	81	11.8	3	6	202	0.0	1014.9	0	0.000	0.0
20110728 02:20	14.8	14.8	14.8	81	11.6	2	6	202	0.0	1014.9	0	0.000	0.0
20110728 02:25	14.7	14.7	14.7	81	11.5	0	3	202	0.0	1015.0	0	0.000	0.0
20110728 02:30	14.7	14.7	14.7	81	11.4	0	3	202	0.0	1015.0	0	0.000	0.0
20110728 02:35	14.6	14.6	14.6	82	11.5	2	8	270	0.0	1015.0	0	0.000	0.0
20110728 02:40	14.6	14.6	14.6	82	11.5	2	5	270	0.0	1015.1	0	0.000	0.0
20110728 02:45	14.4	14.4	14.4	83	11.6	0	2	270	0.0	1015.1	0	0.000	0.0
20110728 02:50	14.4	14.4	14.4	83	11.5	0	2	270	0.0	1015.2	0	0.000	0.0
20110728 02:55	14.3	14.3	14.3	83	11.5	0	3	270	0.0	1015.2	0	0.000	0.0
20110728 03:00	14.3	14.3	14.3	84	11.7	2	6	270	0.0	1015.3	0	0.025	0.0
20110728 03:05	14.3	14.3	14.3	84	11.7	0	3	270	0.0	1015.2	0	0.000	0.0
20110728 03:10	14.3	14.3	14.3	85	11.8	3	6	270	0.0	1015.4	0	0.000	0.0
20110728 03:15	14.2	14.2	14.2	85	11.7	3	6	270	0.0	1015.3	0	0.000	0.0
20110728 03:20	14.2	14.2	14.2	86	11.9	2	8	270	0.0	1015.3	0	0.000	0.0
20110728 03:25	14.2	14.2	14.2	86	11.9	3	6	270	0.0	1015.3	0	0.000	0.0
20110728 03:30	14.1	14.1	14.1	86	11.7	3	8	270	0.0	1015.4	0	0.000	0.0
20110728 03:35	14.0	14.0	14.0	87	11.9	3	8	270	0.0	1015.4	0	0.000	0.0
20110728 03:40	13.9	13.9	13.9	87	11.8	3	6	270	0.0	1015.4	0	0.000	0.0
20110728 03:45	13.9	13.9	13.9	88	11.9	3	6	270	0.0	1015.4	0	0.000	0.0
20110728 03:50	13.9	13.9	13.9	88	11.9	5	11	270	0.0	1015.4	0	0.000	0.0
20110728 03:55	13.9	13.9	13.9	88	11.9	5	11	270	0.0	1015.4	0	0.000	0.0
20110728 04:00	13.8	13.8	13.8	88	11.9	5	11	270	0.0	1015.4	0	0.025	0.0
20110728 04:05	13.8	13.8	13.8	89	12.0	5	10	270	0.0	1015.3	0	0.000	0.0
20110728 04:10	13.8	13.8	13.8	89	12.0	6	11	270	0.0	1015.3	0	0.000	0.0
20110728 04:15	13.7	13.7	13.7	89	11.9	5	10	270	0.0	1015.3	0	0.000	0.0
20110728 04:20	13.7	13.7	13.7	89	11.9	6	10	270	0.0	1015.3	0	0.000	0.0
20110728 04:25	13.7	13.7	13.7	89	11.9	6	11	248	0.0	1015.3	0	0.000	0.0
20110728 04:30	13.7	13.7	13.7	89	11.9	3	8	248	0.0	1015.3	0	0.000	0.0
20110728 04:35	13.6	13.6	13.6	89	11.8	3	8	248	0.0	1015.2	0	0.000	0.0
20110728 04:40	13.6	13.6	13.6	89	11.8	5	8	248	0.0	1015.3	0	0.000	0.0
20110728 04:45	13.6	13.6	13.6	89	11.8	5	8	248	0.0	1015.4	0	0.000	0.0
20110728 04:50	13.5	13.5	13.5	89	11.7	5	13	248	0.0	1015.3	0	0.000	0.0
20110728 04:55	13.4	13.4	13.4	89	11.7	6	14	270	0.0	1015.3	0	0.000	0.0
20110728 05:00	13.4	13.4	13.4	89	11.7	5	8	225	0.0	1015.3	0	0.025	0.0
20110728 05:05	13.4	13.4	13.4	89	11.7	5	10	225	0.0	1015.3	0	0.000	0.0
20110728 05:10	13.4	13.4	13.4	89	11.7	5	8	225	0.0	1015.4	0	0.000	0.0
20110728 05:15	13.4	13.4	13.4	89	11.6	3	6	225	0.0	1015.3	0	0.000	0.0
20110728 05:20	13.3	13.3	13.3	89	11.6	3	6	225	0.0	1015.3	0	0.000	0.0
20110728 05:25	13.3	13.3	13.3	89	11.5	3	8	225	0.0	1015.3	0	0.000	0.0
20110728 05:30	13.2	13.2	13.2	89	11.4	3	6	225	0.0	1015.3	0	0.000	0.0
20110728 05:35	13.2	13.2	13.2	89	11.4	3	6	225	0.0	1015.3	0	0.000	0.0
20110728 05:40	13.1	13.1	13.1	89	11.3	3	6	225	0.0	1015.3	0	0.000	0.0
20110728 05:45	13.1	13.1	13.1	89	11.3	5	8	248	0.0	1015.3	0	0.000	0.0
20110728 05:50	13.1	13.1	13.1	89	11.3	5	10	270	0.0	1015.2	1	0.000	0.0
20110728 05:55	13.1	13.1	13.1	89	11.3	5	10	248	0.0	1015.3	6	0.000	0.0
20110728 06:00	13.1	13.1	13.1	89	11.3	3	6	248	0.0	1015.4	9	0.000	0.0
20110728 06:05	13.1	13.1	13.1	89	11.3	3	6	248	0.0	1015.4	13	0.000	0.0
20110728 06:10	13.1	13.1	13.1	89	11.3	5	8	292	0.0	1015.5	16	0.000	0.0
20110728 06:15	13.1	13.1	13.1	89	11.3	5	8	270	0.0	1015.7	17	0.000	0.0
20110728 06:20	13.1	13.1	13.1	89	11.3	5	8	270	0.0	1015.6	20	0.000	0.0
20110728 06:25	13.1	13.1	13.1	89	11.3	5	8	270	0.0	1015.6	26	0.000	0.0
20110728 06:30	13.1	13.1	13.1	89	11.3	3	8	270	0.0	1015.6	38	0.000	0.0
20110728 06:35	13.2	13.2	13.2	89	11.4	2	6	270	0.0	1015.8	51	0.000	0.0
20110728 06:40	13.3	13.3	13.3	89	11.6	3	8	270	0.0	1015.6	68	0.000	0.0
20110728 06:45	13.5	13.5	13.5	89	11.7	5	10	270	0.0	1015.8	68	0.000	0.0
20110728 06:50	13.7	13.7	13.7	89	11.9	5	10	270	0.0	1015.8	64	0.000	0.0
20110728 06:55	13.8	13.8	13.8	89	12.0	5	10	270	0.0	1015.9	49	0.000	0.0
20110728 07:00	13.9	13.9	13.9	88	11.9	6	14	270	0.0	1015.8	47	0.025	0.0
20110728 07:05	14.0	14.0	14.0	88	12.0	6	13	270	0.0	1016.1	49	0.000	0.0
20110728 07:10	14.1	14.1	14.1	88	12.1	5	13	270	0.0	1016.1	54	0.000	0.0
20110728 07:15	14.2	14.2	14.2	88	12.2	6	11	270	0.0	1016.1	57	0.000	0.0
20110728 07:20	14.2	14.2	14.2	88	12.3	5	11	270	0.0	1016.0	61	0.000	0.0
20110728 07:25	14.3	14.3	14.3	88	12.3	6	11	270	0.0	1015.9	64	0.000	0.0
20110728 07:30	14.3	14.3	14.3	88	12.4	6	11	292	0.0	1015.8	68	0.000	0.0
20110728 07:35	14.4	14.4	14.4	87	12.3	6	11	292	0.0	1015.9	73	0.000	0.0
20110728 07:40	14.4	14.4	14.4	87	12.3	6	11	292	0.0	1015.9	78	0.000	0.0
20110728 07:45	14.5	14.5	14.5	87	12.4	5	8	270	0.0	1016.0	85	0.000	0.0
20110728 07:50	14.6	14.6	14.6	87	12.4	5	10	248	0.0	1016.0	97	0.000	0.4
20110728 07:55	14.6	14.6	14.6	87	12.5	5	10	248	0.0	1016.0	107	0.000	0.5
20110728 08:00	14.8	14.8	14.8	87	12.6	5	10	248	0.0	1016.0	109	0.051	0.6
20110728 08:05	14.8	14.8	14.8	86	12.5	5	10	270	0.0	1016.1	112	0.000	0.6
20110728 08:10	15.0	15.0	15.0	86	12.7	5	11	270	0.0	1016.2	115	0.000	0.6
20110728 08:15	15.0	15.0	15.0	86	12.7	5	10	270	0.0	1016.2	114	0.000	0.6
20110728 08:20	15.0	15.0	15.0	86	12.7	6	10	270	0.0	1016.2	115	0.000	0.6
20110728 08:25	15.0	15.0	15.0	85	12.5	10	18	292	0.0	1016.2	114	0.000	0.6
20110728 08:30	15.1	15.1	15.1	85	12.6	6	11	270	0.0	1016.2	114	0.000	0.6
20110728 08:35	15.2	15.2	15.2	85	12.7	10	18	292	0.0	1016.1	122	0.000	0.7
20110728 08:40	15.3	15.3	15.3	84	12.6	10	16	292	0.0	1016.1	139	0.000	0.8
20110728 08:45	15.4	15.4	15.4	84	12.7	6	16	270	0.0	1016.1	169	0.000	0.9
20110728 08:50	15.5	15.5	15.5	84	12.8	6	14	292	0.0	1016.1	199	0.000	1.1
20110728 08:55	15.7	15.7	15.7	83	12.8	8	14	292	0.0	1016.2	229	0.000	1.3
20110728 09:00	15.8	15.8	15.8	82	12.7	8	16	270	0.0	1016.1	261	0.102	1.4
20110728 09:05	16.0	16.0	16.0	82	12.9	8	11	270	0.0	1016.2	303	0.000	1.6
20110728 09:10	16.2	16.2	16.2	81	12.9	11	19	292	0.0	1016.3	234	0.000	1.4
20110728 09:15	16.2	16.2	16.2	80	12.8	10	18	292	0.0	1016.2	257	0.000	1.6
20110728 09:20	16.3	16.3	16.3	80	12.9	10	16	270	0.0	1016.1	247	0.000	1.6
20110728 09:25	16.4	16.4	16.4	80	12.9	10	16	292	0.0	1016.1	233	0.000	1.5
20110728 09:30	16.4	16.4	16.4	80	12.9	11	21	270	0.0	1016.1	-100000	0.000	1.6
20110728 09:35	16.4	16.4	16.4	80	13.0	8	18	270	0.0	1016.1	236	0.000	1.9
20110728 09:40	16.6	16.6	16.6	79	12.9	8	18	292	0.0	1016.0	266	0.000	2.3
20110728 09:45	16.7	16.7	16.7	79	13.0	10	19	292	0.0	1016.1	364	0.000	2.7
20110728 09:50	16.8	16.8	16.8	79	13.1	11	16	270	0.0	1016.1	264	0.000	2.6
20110728 09:55	16.8	16.8	16.8	78	13.0	8	18	270	0.0	1016.1	269	0.000	2.4
20110728 10:00	16.9	16.9	16.9	78	13.0	11	19	292	0.0	1016.2	232	0.152	2.2
20110728 10:05	16.9	16.9	16.9	78	13.1	11	19	292	0.0	1016.1	279	0.000	2.8
20110728 10:10	17.1	17.1	17.1	78	13.2	11	21	292	0.0	1016.1	277	0.000	3.0
20110728 10:15	17.2	17.2	17.2	77	13.1	13	21	270	0.0	1016.1	346	0.000	3.2
20110728 10:20	17.3	17.3	17.3	78	13.5	6	18	270	0.0	1016.2	319	0.000	2.7
20110728 10:25	17.4	17.4	17.4	76	13.2	10	19	270	0.0	1016.2	325	0.000	2.5
20110728 10:30	17.6	17.6	17.6	76	13.3	10	16	270	0.0	1016.2	375	0.000	2.9
20110728 10:35	17.7	17.7	17.7	76	13.4	10	16	270	0.0	1016.2	293	0.000	2.5
20110728 10:40	17.7	17.7	17.7	76	13.4	8	19	270	0.0	1016.3	348	0.000	2.8
20110728 10:45	17.8	17.8	17.8	76	13.5	8	18	292	0.0	1016.2	383	0.000	3.0
20110728 10:50	17.9	17.9	17.9	75	13.4	8	16	292	0.0	1016.2	340	0.000	3.0
20110728 10:55	18.0	18.0	18.0	74	13.3	8	16	270	0.0	1016.3	279	0.000	2.9
20110728 11:00	18.1	18.1	18.1	75	13.6	5	16	270	0.0	1016.2	280	0.229	3.1
20110728 11:05	18.2	18.2	18.2	75	13.7	8	19	292	0.0	1016.2	335	0.000	3.8
20110728 11:10	18.4	18.4	18.4	74	13.7	8	18	270	0.0	1016.2	455	0.000	3.7
20110728 11:15	18.6	18.6	18.6	74	13.8	8	14	270	0.0	1016.3	363	0.000	3.6
20110728 11:20	18.7	18.7	18.7	73	13.8	10	18	292	0.0	1016.2	348	0.000	3.4
20110728 11:25	18.7	18.7	18.7	72	13.5	10	18	270	0.0	1016.0	338	0.000	3.2
20110728 11:30	18.7	18.7	18.7	72	13.5	10	19	292	0.0	1016.2	392	0.000	3.8
20110728 11:35	18.7	18.7	18.7	72	13.5	10	16	270	0.0	1016.1	361	0.000	3.6
20110728 11:40	18.7	18.7	18.7	73	13.8	11	19	292	0.0	1016.0	396	0.000	4.8
20110728 11:45	18.9	18.9	18.9	72	13.8	10	19	270	0.0	1015.9	894	0.000	6.2
20110728 11:50	19.4	19.4	19.4	71	14.0	8	18	292	0.0	1015.9	790	0.000	5.8
20110728 11:55	19.7	19.7	19.7	70	14.0	8	19	292	0.0	1015.9	696	0.000	5.5
20110728 12:00	19.6	19.6	19.6	69	13.8	8	16	292	0.0	1015.9	230	0.305	4.7
20110728 12:05	19.7	19.7	19.7	69	13.8	8	18	225	0.0	1015.8	522	0.000	5.7
20110728 12:10	19.6	19.6	19.6	68	13.5	10	16	270	0.0	1015.9	315	0.000	5.2
20110728 12:15	19.6	19.6	19.6	68	13.5	10	21	270	0.0	1015.8	489	0.000	5.6
20110728 12:20	19.8	19.8	19.8	68	13.7	10	24	292	0.0	1015.8	515	0.000	5.7
20110728 12:25	19.9	19.9	19.9	68	13.9	5	11	270	0.0	1015.7	705	0.000	6.0
20110728 12:30	20.2	20.2	20.2	67	13.9	11	21	270	0.0	1015.6	455	0.000	5.2
20110728 12:35	20.3	20.3	20.3	67	14.0	14	21	248	0.0	1015.5	983	0.000	6.6
20110728 12:40	20.4	20.4	20.4	67	14.1	11	21	270	0.0	1015.5	1052	0.000	6.4
20110728 12:45	20.6	20.6	20.6	68	14.4	10	18	248	0.0	1015.5	1027	0.000	5.7
20110728 12:50	20.7	20.7	20.7	67	14.4	11	21	248	0.0	1015.4	768	0.000	5.4
20110728 12:55	20.8	20.8	20.8	64	13.8	8	16	270	0.0	1015.4	339	0.000	6.1
20110728 13:00	21.1	21.1	21.1	66	14.5	10	19	225	0.0	1015.3	941	0.432	7.6
20110728 13:05	21.3	21.3	21.3	65	14.5	10	19	248	0.0	1015.4	999	0.000	7.8
20110728 13:10	21.5	21.5	21.5	65	14.6	13	21	248	0.0	1015.2	1050	0.000	7.6
20110728 13:15	21.6	21.6	21.6	64	14.4	11	21	248	0.0	1015.1	340	0.000	4.6
20110728 13:20	21.2	21.2	21.2	64	14.1	11	19	225	0.0	1015.2	369	0.000	4.5
20110728 13:25	21.2	21.2	21.2	64	14.1	11	21	270	0.0	1015.1	592	0.000	4.8
20110728 13:30	20.9	20.9	20.9	64	13.9	11	16	248	0.0	1015.1	238	0.000	3.4
20110728 13:35	20.8	20.8	20.8	65	14.0	10	16	292	0.0	1015.0	245	0.000	3.6
20110728 13:40	20.7	20.7	20.7	65	13.9	6	11	270	0.0	1015.1	205	0.000	3.3
20110728 13:45	20.6	20.6	20.6	65	13.8	13	23	292	0.0	1015.0	165	0.000	3.2
20110728 13:50	20.4	20.4	20.4	67	14.0	10	19	292	0.0	1015.0	151	0.000	3.2
20110728 13:55	20.3	20.3	20.3	66	13.7	10	18	270	0.0	1015.0	156	0.000	3.1
20110728 14:00	20.3	20.3	20.3	66	13.7	8	19	292	0.0	1015.0	219	0.305	3.7
20110728 14:05	20.5	20.5	20.5	66	13.9	10	21	270	0.0	1015.0	661	0.000	6.3
20110728 14:10	21.2	21.2	21.2	65	14.3	10	19	270	0.0	1014.9	1031	0.000	7.6
20110728 14:15	21.7	21.7	21.7	61	13.8	8	19	248	0.0	1014.8	414	0.000	5.2
20110728 14:20	21.6	21.6	21.6	59	13.2	8	18	292	0.0	1014.9	385	0.000	4.0
20110728 14:25	21.5	21.5	21.5	60	13.4	6	11	270	0.0	1014.9	277	0.000	2.7
20110728 14:30	21.4	21.4	21.4	61	13.5	8	11	248	0.0	1014.8	208	0.000	2.1
20110728 14:35	21.3	21.3	21.3	63	13.9	8	19	292	0.0	1014.7	220	0.000	2.2
20110728 14:40	21.1	21.1	21.1	62	13.5	11	23	315	0.0	1014.7	296	0.000	2.9
20110728 14:45	21.0	21.0	21.0	62	13.4	8	13	270	0.0	1014.6	265	0.000	3.1
20110728 14:50	21.0	21.0	21.0	61	13.2	10	16	292	0.0	1014.6	226	0.000	3.0
20110728 14:55	21.1	21.1	21.1	61	13.2	6	16	315	0.0	1014.5	312	0.000	4.1
20110728 15:00	21.4	21.4	21.4	60	13.3	8	16	270	0.0	1014.4	872	0.305	4.8
20110728 15:05	21.7	21.7	21.7	60	13.6	3	11	315	0.0	1014.4	275	0.000	4.2
20110728 15:10	21.9	21.9	21.9	59	13.5	6	16	315	0.0	1014.2	812	0.000	5.8
20110728 15:15	22.3	22.3	22.3	54	12.5	5	11	270	0.0	1014.2	805	0.000	5.9
20110728 15:20	22.7	22.7	22.7	52	12.3	3	14	270	0.0	1014.0	784	0.000	5.8
20110728 15:25	23.3	23.3	23.3	53	13.2	5	11	292	0.0	1014.1	799	0.000	5.7
20110728 15:30	23.6	23.6	23.6	53	13.5	6	19	0	0.0	1014.1	910	0.000	4.8
20110728 15:35	23.5	23.5	23.5	54	13.6	10	24	315	0.0	1014.2	295	0.000	3.0
20110728 15:40	22.9	22.9	22.9	57	14.0	6	23	315	0.0	1014.2	223	0.000	2.5
20110728 15:45	22.5	22.5	22.5	57	13.5	8	19	315	0.0	1014.3	221	0.000	2.4
20110728 15:50	22.1	22.1	22.1	59	13.7	11	21	315	0.0	1014.4	286	0.000	2.5
20110728 15:55	21.8	21.8	21.8	62	14.2	11	29	22	0.0	1014.6	345	0.000	2.5
20110728 16:00	20.4	20.4	20.4	62	12.9	19	35	45	0.0	1015.0	175	0.330	1.3
20110728 16:05	19.4	19.4	19.4	65	12.6	18	27	45	0.0	1015.4	207	0.000	1.8
20110728 16:10	18.6	18.6	18.6	68	12.5	21	31	22	0.0	1015.4	169	0.000	1.6
20110728 16:15	18.0	18.0	18.0	71	12.7	18	32	22	0.0	1015.6	110	0.000	1.1
20110728 16:20	17.6	17.6	17.6	73	12.7	19	31	22	0.0	1015.6	97	0.000	0.8
20110728 16:25	17.4	17.4	17.4	77	13.3	13	26	22	0.0	1015.4	83	0.000	0.7
20110728 16:30	17.2	17.2	17.2	78	13.3	10	18	45	0.0	1015.3	61	0.000	0.5
20110728 16:35	17.0	17.0	17.0	79	13.3	11	21	45	0.0	1015.4	62	0.000	0.5
20110728 16:40	16.8	16.8	16.8	80	13.4	11	19	22	0.2	1015.3	57	0.000	0.3
20110728 16:45	16.7	16.7	16.7	82	13.6	5	14	45	0.0	1015.3	57	0.000	0.4
20110728 16:50	16.7	16.7	16.7	84	13.9	2	6	338	0.2	1015.4	49	0.000	0.1
20110728 16:55	16.6	16.6	16.6	84	13.9	3	8	315	0.0	1015.4	34	0.000	0.0
20110728 17:00	16.4	16.4	16.4	84	13.7	5	10	315	0.0	1015.4	-100000	0.076	0.0
20110728 17:05	16.3	16.3	16.3	84	13.6	5	10	315	0.0	1015.6	19	0.000	0.0
20110728 17:10	16.2	16.2	16.2	86	13.9	2	5	292	0.2	1015.8	16	0.000	0.0
20110728 17:15	16.1	16.1	16.1	85	13.5	2	5	292	0.2	1015.9	16	0.000	0.0
20110728 17:20	16.0	16.0	16.0	86	13.7	0	5	292	0.2	1016.0	16	0.000	0.0
20110728 17:25	15.9	15.9	15.9	87	13.7	2	6	248	0.2	1016.1	17	0.000	0.0
20110728 17:30	15.9	15.9	15.9	88	13.9	2	6	225	0.4	1016.1	641	0.000	0.0
20110728 17:35	15.8	15.8	15.8	88	13.8	2	6	225	0.2	1016.1	19	0.000	0.0
20110728 17:40	15.8	15.8	15.8	88	13.8	2	5	225	0.0	1016.1	19	0.000	0.0
20110728 17:45	15.7	15.7	15.7	88	13.7	2	5	225	0.0	1016.1	21	0.000	0.0
20110728 17:50	15.6	15.6	15.6	88	13.6	2	5	225	0.0	1016.1	21	0.000	0.0
20110728 17:55	15.6	15.6	15.6	89	13.8	2	5	225	0.0	1016.2	22	0.000	0.0
20110728 18:00	15.6	15.6	15.6	89	13.8	2	6	225	0.0	1016.1	23	0.025	0.0
20110728 18:05	15.6	15.6	15.6	89	13.8	5	8	225	0.0	1016.2	23	0.000	0.0
20110728 18:10	15.7	15.7	15.7	89	13.9	3	8	225	0.0	1016.2	23	0.000	0.0
20110728 18:15	15.7	15.7	15.7	89	13.9	3	8	225	0.0	1016.2	23	0.000	0.0
20110728 18:20	15.7	15.7	15.7	89	13.9	3	6	225	0.0	1016.1	22	0.000	0.0
20110728 18:25	15.7	15.7	15.7	90	14.0	3	6	225	0.0	1016.0	20	0.000	0.0
20110728 18:30	15.7	15.7	15.7	90	14.0	3	5	225	0.0	1016.0	19	0.000	0.0
20110728 18:35	15.7	15.7	15.7	90	14.0	2	5	225	0.2	1015.9	19	0.000	0.0
20110728 18:40	15.7	15.7	15.7	90	14.1	3	8	225	0.0	1015.9	19	0.000	0.0
20110728 18:45	15.8	15.8	15.8	90	14.1	3	6	225	0.0	1015.9	21	0.000	0.0
20110728 18:50	15.8	15.8	15.8	90	14.1	3	6	225	0.2	1016.0	23	0.000	0.0
20110728 18:55	15.8	15.8	15.8	90	14.1	5	8	225	0.0	1016.0	26	0.000	0.0
20110728 19:00	15.8	15.8	15.8	90	14.1	3	6	225	0.2	1016.0	29	0.025	0.0
20110728 19:05	15.8	15.8	15.8	91	14.4	2	6	225	0.0	1016.0	33	0.000	0.0
20110728 19:10	15.8	15.8	15.8	91	14.4	3	6	225	0.0	1015.8	35	0.000	0.0
20110728 19:15	15.9	15.9	15.9	91	14.4	3	6	225	0.0	1015.7	39	0.000	0.0
20110728 19:20	15.8	15.8	15.8	91	14.4	3	8	225	0.2	1015.8	40	0.000	0.0
20110728 19:25	15.8	15.8	15.8	91	14.4	3	8	225	0.0	1015.8	39	0.000	0.0
20110728 19:30	15.8	15.8	15.8	91	14.4	5	8	225	0.0	1015.8	35	0.000	0.0
20110728 19:35	15.8	15.8	15.8	91	14.4	5	8	225	0.0	1015.8	31	0.000	0.0
20110728 19:40	15.8	15.8	15.8	91	14.4	3	6	225	0.0	1015.7	29	0.000	0.0
20110728 19:45	15.8	15.8	15.8	91	14.4	3	6	225	0.0	1015.6	33	0.000	0.0
20110728 19:50	15.9	15.9	15.9	91	14.4	3	8	225	0.0	1015.7	30	0.000	0.0
20110728 19:55	15.9	15.9	15.9	91	14.4	3	6	225	0.0	1015.7	26	0.000	0.0
20110728 20:00	15.9	15.9	15.9	91	14.4	2	5	225	0.0	1015.8	26	0.025	0.0
20110728 20:05	15.9	15.9	15.9	91	14.5	2	5	225	0.0	1015.9	23	0.000	0.0
20110728 20:10	15.9	15.9	15.9	91	14.5	0	5	225	0.0	1015.9	18	0.000	0.0
20110728 20:15	15.9	15.9	15.9	91	14.5	2	5	225	0.0	1015.9	12	0.000	0.0
20110728 20:20	15.8	15.8	15.8	91	14.3	6	10	225	0.0	1015.9	8	0.000	0.0
20110728 20:25	15.6	15.6	15.6	90	14.0	3	11	225	0.0	1015.9	7	0.000	0.0
20110728 20:30	15.5	15.5	15.5	90	13.9	2	6	225	0.0	1015.9	7	0.000	0.0
20110728 20:35	15.4	15.4	15.4	90	13.8	3	6	225	0.0	1015.9	7	0.000	0.0
20110728 20:40	15.4	15.4	15.4	90	13.8	3	6	225	0.0	1016.0	5	0.000	0.0
20110728 20:45	15.4	15.4	15.4	90	13.8	3	6	225	0.0	1016.1	3	0.000	0.0
20110728 20:50	15.3	15.3	15.3	90	13.7	3	6	225	0.0	1016.1	0	0.000	0.0
20110728 20:55	15.2	15.2	15.2	90	13.6	3	6	225	0.0	1016.3	0	0.000	0.0
20110728 21:00	15.0	15.0	15.0	90	13.4	3	8	225	0.0	1016.4	0	0.000	0.0
20110728 21:05	15.0	15.0	15.0	90	13.4	3	10	225	0.0	1016.3	0	0.000	0.0
20110728 21:10	15.0	15.0	15.0	90	13.4	5	11	225	0.0	1016.5	0	0.000	0.0
20110728 21:15	14.8	14.8	14.8	90	13.2	2	6	225	0.0	1016.6	0	0.000	0.0
20110728 21:20	14.7	14.7	14.7	90	13.0	3	10	225	0.0	1016.5	0	0.000	0.0
20110728 21:25	14.5	14.5	14.5	90	12.9	5	8	248	0.0	1016.6	0	0.000	0.0
20110728 21:30	14.4	14.4	14.4	90	12.8	5	8	248	0.0	1016.7	-100000	0.000	0.0
20110728 21:35	14.3	14.3	14.3	90	12.7	5	6	248	0.0	1016.7	0	0.000	0.0
20110728 21:40	14.2	14.2	14.2	90	12.5	3	8	248	0.0	1016.7	0	0.000	0.0
20110728 21:45	14.1	14.1	14.1	90	12.5	2	5	270	0.0	1016.9	0	0.000	0.0
20110728 21:50	14.1	14.1	14.1	90	12.4	3	6	270	0.0	1016.9	0	0.000	0.0
20110728 21:55	14.0	14.0	14.0	90	12.4	5	8	270	0.0	1016.9	0	0.000	0.0
20110728 22:00	14.0	14.0	14.0	91	12.6	5	11	248	0.0	1017.0	0	0.000	0.0
20110728 22:05	14.0	14.0	14.0	91	12.6	6	11	248	0.0	1016.7	0	0.000	0.0
20110728 22:10	14.1	14.1	14.1	91	12.6	5	8	248	0.0	1016.7	0	0.000	0.0
20110728 22:15	14.0	14.0	14.0	91	12.6	3	10	225	0.0	1016.9	0	0.000	0.0
20110728 22:20	14.0	14.0	14.0	91	12.6	2	8	225	0.0	1016.9	0	0.000	0.0
20110728 22:25	13.9	13.9	13.9	91	12.5	2	6	225	0.0	1017.0	0	0.000	0.0
20110728 22:30	13.9	13.9	13.9	91	12.5	5	10	225	0.0	1017.0	0	0.000	0.0
20110728 22:35	13.9	13.9	13.9	91	12.4	3	8	225	0.0	1017.0	0	0.000	0.0
20110728 22:40	13.8	13.8	13.8	91	12.4	3	6	225	0.0	1017.0	0	0.000	0.0
20110728 22:45	13.8	13.8	13.8	91	12.3	3	6	225	0.0	1017.0	0	0.000	0.0
20110728 22:50	13.7	13.7	13.7	91	12.3	2	6	225	0.0	1017.0	0	0.000	0.0
20110728 22:55	13.7	13.7	13.7	91	12.3	2	5	225	0.0	1017.0	0	0.000	0.0
20110728 23:00	13.7	13.7	13.7	91	12.3	2	5	225	0.0	1017.0	0	0.000	0.0
20110728 23:05	13.7	13.7	13.7	91	12.2	2	5	225	0.0	1016.8	0	0.000	0.0
20110728 23:10	13.7	13.7	13.7	91	12.2	2	5	225	0.0	1016.9	0	0.000	0.0
20110728 23:15	13.6	13.6	13.6	91	12.2	2	6	225	0.0	1016.9	0	0.000	0.0
20110728 23:20	13.7	13.7	13.7	91	12.2	5	8	225	0.0	1016.8	0	0.000	0.0
20110728 23:25	13.7	13.7	13.7	91	12.2	2	6	225	0.0	1016.9	0	0.000	0.0
20110728 23:30	13.7	13.7	13.7	91	12.2	2	5	225	0.0	1016.9	0	0.000	0.0
20110728 23:35	13.7	13.7	13.7	91	12.2	3	8	225	0.0	1016.9	0	0.000	0.0
20110728 23:40	13.7	13.7	13.7	91	12.2	5	8	225	0.0	1016.9	0	0.000	0.0
20110728 23:45	13.7	13.7	13.7	91	12.2	5	6	225	0.0	1016.9	0	0.000	0.0
20110728 23:50	13.7	13.7	13.7	91	12.2	5	8	248	0.0	1016.9	0	0.000	0.0
20110728 23:55	13.7	13.7	13.7	91	12.2	3	10	270	0.0	1016.9	0	0.000	0.0



Please note the license to use and transfer of this data:
http://creativecommons.org/licenses/by-nc-sa/3.0/deed.en

Bitte beachten sie die Lizenz zur Verwertung und Weitergabe der Daten:
http://creativecommons.org/licenses/by-nc-sa/3.0/deed.de

zurück zur Übersicht der Archivdaten (Monats und Tagesdaten)

Cookies helfen bei der Bereitstellung von Inhalten. Durch die Nutzung dieser Seiten erklärst du dich damit einverstanden, dass Cookies auf deinem Rechner gespeichert werden. Weitere Information